createdAt,value
2019-04-10T00:02:21.708Z,47.78
2019-04-10T00:04:49.553Z,46.27
2019-04-10T00:07:18.371Z,44.56
2019-04-10T00:09:47.504Z,45.81
2019-04-10T00:12:15.703Z,43.17
2019-04-10T00:14:45.151Z,44.66
2019-04-10T00:17:13.138Z,44.75
2019-04-10T00:19:40.996Z,45.63
2019-04-10T00:22:09.706Z,46.04
2019-04-10T00:24:37.884Z,44.40
2019-04-10T00:27:06.139Z,45.66
2019-04-10T00:29:34.226Z,45.12
2019-04-10T00:32:02.372Z,46.05
2019-04-10T00:34:31.743Z,44.66
2019-04-10T00:36:59.670Z,44.17
2019-04-10T00:39:28.598Z,45.41
2019-04-10T00:41:56.829Z,45.99
2019-04-10T00:44:25.754Z,44.51
2019-04-10T00:46:53.593Z,44.56
2019-04-10T00:49:22.392Z,43.22
2019-04-10T00:51:50.156Z,45.70
2019-04-10T00:54:18.162Z,46.67
2019-04-10T00:56:46.176Z,43.97
2019-04-10T00:59:14.141Z,43.36
2019-04-10T01:01:41.904Z,43.80
2019-04-10T01:04:10.554Z,45.98
2019-04-10T01:06:38.537Z,46.84
2019-04-10T01:09:08.792Z,44.99
2019-04-10T01:11:36.689Z,44.50
2019-04-10T01:14:05.443Z,45.51
2019-04-10T01:16:33.534Z,48.27
2019-04-10T01:19:01.741Z,45.83
2019-04-10T01:21:30.456Z,46.41
2019-04-10T01:23:59.401Z,44.92
2019-04-10T01:26:28.065Z,50.08
2019-04-10T01:28:56.033Z,48.40
2019-04-10T01:31:23.799Z,44.72
2019-04-10T01:33:52.630Z,44.11
2019-04-10T01:36:20.748Z,47.84
2019-04-10T01:38:51.611Z,45.41
2019-04-10T01:41:19.570Z,45.04
2019-04-10T01:43:47.318Z,46.97
2019-04-10T01:46:15.914Z,44.59
2019-04-10T01:48:44.039Z,44.58
2019-04-10T01:51:11.908Z,43.12
2019-04-10T01:53:39.855Z,44.08
2019-04-10T01:56:21.111Z,44.82
2019-04-10T01:58:37.747Z,47.06
2019-04-10T02:01:14.676Z,48.93
2019-04-10T02:03:42.682Z,47.22
2019-04-10T02:06:11.341Z,44.32
2019-04-10T02:08:40.233Z,44.95
2019-04-10T02:11:08.884Z,44.73
2019-04-10T02:13:36.742Z,47.52
2019-04-10T02:16:04.504Z,45.55
2019-04-10T02:18:33.137Z,45.56
2019-04-10T02:21:01.227Z,44.03
2019-04-10T02:23:30.196Z,45.55
2019-04-10T02:25:58.660Z,48.20
2019-04-10T02:28:27.043Z,46.63
2019-04-10T02:30:56.522Z,46.68
2019-04-10T02:33:25.430Z,48.55
2019-04-10T02:35:54.742Z,42.91
2019-04-10T02:38:38.979Z,45.82
2019-04-10T02:40:52.977Z,44.88
2019-04-10T02:43:21.220Z,44.02
2019-04-10T02:45:49.374Z,43.34
2019-04-10T02:48:17.264Z,44.18
2019-04-10T02:50:45.207Z,45.22
2019-04-10T02:53:13.231Z,44.45
2019-04-10T02:55:41.187Z,46.06
2019-04-10T02:58:09.675Z,45.72
2019-04-10T03:00:37.931Z,44.97
2019-04-10T03:03:05.797Z,45.52
2019-04-10T03:05:34.637Z,43.94
2019-04-10T03:08:04.882Z,45.71
2019-04-10T03:10:41.340Z,45.55
2019-04-10T03:13:02.696Z,48.42
2019-04-10T03:15:31.521Z,45.63
2019-04-10T03:17:59.477Z,43.75
2019-04-10T03:20:27.215Z,46.41
2019-04-10T03:22:56.830Z,46.81
2019-04-10T03:25:24.744Z,43.17
2019-04-10T03:27:52.602Z,43.72
2019-04-10T03:30:22.698Z,43.49
2019-04-10T03:33:11.442Z,46.52
2019-04-10T03:35:48.111Z,47.51
2019-04-10T03:38:16.395Z,44.87
2019-04-10T03:40:44.132Z,44.20
2019-04-10T03:43:11.909Z,45.84
2019-04-10T03:45:39.712Z,50.12
2019-04-10T03:48:08.457Z,47.26
2019-04-10T03:50:36.422Z,47.27
2019-04-10T03:53:04.264Z,44.29
2019-04-10T03:55:32.711Z,44.16
2019-04-10T03:58:00.787Z,45.41
2019-04-10T04:00:28.659Z,46.37
2019-04-10T04:02:56.397Z,46.28
2019-04-10T04:05:24.172Z,45.37
2019-04-10T04:07:51.909Z,45.83
2019-04-10T04:10:20.488Z,45.06
2019-04-10T04:12:48.269Z,45.41
2019-04-10T04:15:16.096Z,43.89
2019-04-10T04:17:44.420Z,44.51
2019-04-10T04:20:12.821Z,44.98
2019-04-10T04:22:41.140Z,45.03
2019-04-10T04:25:09.023Z,46.05
2019-04-10T04:27:37.726Z,48.72
2019-04-10T04:30:06.360Z,47.14
2019-04-10T04:32:34.246Z,47.65
2019-04-10T04:35:02.414Z,43.33
2019-04-10T04:37:30.238Z,48.05
2019-04-10T04:39:58.353Z,48.40
2019-04-10T04:42:26.513Z,47.32
2019-04-10T04:44:54.345Z,46.16
2019-04-10T04:47:22.345Z,45.48
2019-04-10T04:49:50.309Z,45.46
2019-04-10T04:52:18.357Z,45.67
2019-04-10T04:54:46.278Z,47.85
2019-04-10T04:57:14.921Z,47.61
2019-04-10T04:59:42.999Z,45.84
2019-04-10T05:02:10.783Z,47.01
2019-04-10T05:04:39.519Z,46.84
2019-04-10T05:07:08.359Z,48.79
2019-04-10T05:09:39.113Z,48.01
2019-04-10T05:12:05.739Z,46.05
2019-04-10T05:14:33.574Z,48.50
2019-04-10T05:17:01.354Z,48.70
2019-04-10T05:19:31.369Z,50.25
2019-04-10T05:21:59.514Z,50.20
2019-04-10T05:24:27.934Z,49.55
2019-04-10T05:26:56.911Z,50.20
2019-04-10T05:29:25.083Z,48.64
2019-04-10T05:31:53.273Z,51.39
2019-04-10T05:34:21.979Z,48.89
2019-04-10T05:36:51.130Z,49.55
2019-04-10T05:39:19.206Z,47.43
2019-04-10T05:41:47.161Z,52.07
2019-04-10T05:44:16.684Z,52.51
2019-04-10T05:46:45.059Z,49.15
2019-04-10T05:49:14.960Z,51.99
2019-04-10T05:51:43.658Z,52.44
2019-04-10T05:54:11.467Z,46.32
2019-04-10T05:56:39.244Z,48.93
2019-04-10T05:59:08.566Z,43.49
2019-04-10T06:01:39.728Z,53.08
2019-04-10T06:04:07.032Z,46.98
2019-04-10T06:06:35.157Z,48.83
2019-04-10T06:09:04.478Z,47.88
2019-04-10T06:11:33.119Z,45.67
2019-04-10T06:14:01.151Z,48.42
2019-04-10T06:16:30.216Z,44.92
2019-04-10T06:18:58.231Z,49.00
2019-04-10T06:21:31.400Z,50.12
2019-04-10T06:24:03.537Z,49.10
2019-04-10T06:26:32.563Z,47.13
2019-04-10T06:29:00.649Z,47.01
2019-04-10T06:31:28.524Z,47.62
2019-04-10T06:33:56.390Z,49.93
2019-04-10T06:36:25.107Z,48.25
2019-04-10T06:38:53.217Z,48.42
2019-04-10T06:41:22.187Z,45.80
2019-04-10T06:43:50.318Z,47.29
2019-04-10T06:46:18.365Z,48.23
2019-04-10T06:48:46.209Z,48.24
2019-04-10T06:51:13.956Z,48.81
2019-04-10T06:53:41.812Z,48.84
2019-04-10T06:56:09.903Z,47.61
2019-04-10T06:58:38.181Z,46.56
2019-04-10T07:01:06.347Z,47.58
2019-04-10T07:03:49.425Z,47.96
2019-04-10T07:06:13.413Z,47.58
2019-04-10T07:08:34.086Z,48.10
2019-04-10T07:11:08.177Z,48.63
2019-04-10T07:13:39.543Z,47.49
2019-04-10T07:16:04.366Z,47.44
2019-04-10T07:18:32.778Z,47.77
2019-04-10T07:21:02.068Z,46.97
2019-04-10T07:23:31.925Z,46.03
2019-04-10T07:25:59.282Z,43.74
2019-04-10T07:28:27.807Z,43.55
2019-04-10T07:31:00.266Z,46.76
2019-04-10T07:33:26.618Z,46.27
2019-04-10T07:35:56.591Z,46.67
2019-04-10T07:38:24.712Z,46.13
2019-04-10T07:40:52.544Z,47.00
2019-04-10T07:43:25.459Z,45.89
2019-04-10T07:45:49.726Z,46.98
2019-04-10T07:48:19.256Z,46.63
2019-04-10T07:50:48.297Z,45.82
2019-04-10T07:53:16.891Z,45.58
2019-04-10T07:55:57.494Z,45.57
2019-04-10T07:58:15.230Z,46.41
2019-04-10T08:00:43.079Z,45.87
2019-04-10T08:03:11.028Z,43.70
2019-04-10T08:05:38.799Z,41.74
2019-04-10T08:08:06.540Z,40.84
2019-04-10T08:10:34.799Z,42.74
2019-04-10T08:13:04.414Z,40.69
2019-04-10T08:15:33.570Z,43.18
2019-04-10T08:18:02.449Z,43.15
2019-04-10T08:20:30.678Z,42.18
2019-04-10T08:22:59.452Z,42.93
2019-04-10T08:25:27.612Z,42.05
2019-04-10T08:27:56.365Z,44.19
2019-04-10T08:30:24.166Z,43.07
2019-04-10T08:32:59.616Z,42.83
2019-04-10T08:35:21.489Z,43.43
2019-04-10T08:37:50.382Z,44.94
2019-04-10T08:40:19.102Z,45.07
2019-04-10T08:42:47.615Z,43.70
2019-04-10T08:45:15.432Z,44.84
2019-04-10T08:47:44.171Z,42.39
2019-04-10T08:50:12.101Z,42.25
2019-04-10T08:52:41.855Z,41.77
2019-04-10T08:55:11.306Z,42.67
2019-04-10T08:57:39.039Z,42.95
2019-04-10T09:00:08.005Z,43.09
2019-04-10T09:02:36.000Z,43.16
2019-04-10T09:05:03.857Z,43.29
2019-04-10T09:07:32.469Z,44.61
2019-04-10T09:10:00.349Z,43.17
2019-04-10T09:12:29.578Z,42.08
2019-04-10T09:14:57.416Z,43.67
2019-04-10T09:17:25.213Z,43.33
2019-04-10T09:19:54.008Z,41.69
2019-04-10T09:22:22.559Z,43.89
2019-04-10T09:24:50.780Z,41.87
2019-04-10T09:27:19.209Z,41.90
2019-04-10T09:29:47.149Z,43.14
2019-04-10T09:32:14.936Z,42.09
2019-04-10T09:34:45.548Z,43.69
2019-04-10T09:37:12.237Z,44.33
2019-04-10T09:39:40.017Z,42.48
2019-04-10T09:42:08.702Z,43.14
2019-04-10T09:44:36.588Z,42.48
2019-04-10T09:47:05.533Z,40.86
2019-04-10T09:49:41.535Z,41.30
2019-04-10T09:52:03.037Z,42.45
2019-04-10T09:54:31.537Z,40.67
2019-04-10T09:57:01.261Z,39.21
2019-04-10T09:59:35.572Z,40.07
2019-04-10T10:01:59.042Z,40.18
2019-04-10T10:04:26.783Z,41.19
2019-04-10T10:06:55.663Z,39.23
2019-04-10T10:09:23.892Z,40.83
2019-04-10T10:11:51.683Z,40.18
2019-04-10T10:14:19.442Z,41.20
2019-04-10T10:16:48.330Z,42.84
2019-04-10T10:19:16.243Z,39.92
2019-04-10T10:21:44.886Z,41.81
2019-04-10T10:24:12.725Z,38.72
2019-04-10T10:26:43.240Z,39.35
2019-04-10T10:29:09.958Z,40.65
2019-04-10T10:31:38.018Z,42.25
2019-04-10T10:34:06.080Z,42.26
2019-04-10T10:36:40.675Z,41.67
2019-04-10T10:39:10.600Z,41.51
2019-04-10T10:41:33.967Z,41.50
2019-04-10T10:44:01.741Z,41.37
2019-04-10T10:46:29.515Z,40.69
2019-04-10T10:48:57.273Z,42.36
2019-04-10T10:51:25.057Z,41.28
2019-04-10T10:53:52.879Z,41.03
2019-04-10T10:56:20.718Z,42.19
2019-04-10T10:58:50.173Z,40.06
2019-04-10T11:01:18.133Z,42.15
2019-04-10T11:03:46.680Z,40.26
2019-04-10T11:06:14.976Z,38.75
2019-04-10T11:08:43.916Z,39.49
2019-04-10T11:11:12.745Z,39.10
2019-04-10T11:13:40.906Z,39.65
2019-04-10T11:16:09.234Z,41.10
2019-04-10T11:18:38.031Z,41.75
2019-04-10T11:21:09.921Z,41.35
2019-04-10T11:23:36.370Z,41.51
2019-04-10T11:26:04.678Z,40.27
2019-04-10T11:28:33.809Z,41.44
2019-04-10T11:31:02.514Z,39.54
2019-04-10T11:33:30.763Z,38.92
2019-04-10T11:36:00.184Z,38.54
2019-04-10T11:38:29.067Z,38.85
2019-04-10T11:40:59.755Z,38.33
2019-04-10T11:43:27.819Z,37.49
2019-04-10T11:45:58.507Z,41.25
2019-04-10T11:48:27.927Z,38.63
2019-04-10T11:50:59.052Z,40.06
2019-04-10T11:53:26.522Z,39.30
2019-04-10T11:55:56.248Z,36.15
2019-04-10T11:58:25.222Z,35.81
2019-04-10T12:00:56.058Z,37.67
2019-04-10T12:03:24.052Z,37.61
2019-04-10T12:05:55.149Z,35.79
2019-04-10T12:08:45.152Z,36.01
2019-04-10T12:13:21.998Z,39.08
2019-04-10T12:15:50.466Z,39.35
2019-04-10T12:18:18.408Z,39.58
2019-04-10T12:20:46.171Z,38.58
2019-04-10T12:23:13.957Z,40.50
2019-04-10T12:25:41.699Z,38.79
2019-04-10T12:28:09.615Z,34.76
2019-04-10T12:30:37.476Z,39.32
2019-04-10T12:33:05.442Z,37.01
2019-04-10T12:35:33.966Z,36.65
2019-04-10T12:38:05.401Z,37.73
2019-04-10T12:40:31.372Z,35.20
2019-04-10T12:42:59.229Z,35.43
2019-04-10T12:45:26.977Z,35.95
2019-04-10T12:47:54.807Z,36.32
2019-04-10T12:50:22.646Z,35.56
2019-04-10T12:52:51.277Z,37.56
2019-04-10T12:55:19.173Z,36.79
2019-04-10T12:57:47.612Z,34.53
2019-04-10T13:00:18.136Z,34.89
2019-04-10T13:02:47.014Z,37.66
2019-04-10T13:05:15.017Z,35.79
2019-04-10T13:07:43.597Z,37.54
2019-04-10T13:10:12.760Z,36.78
2019-04-10T13:12:41.732Z,36.12
2019-04-10T13:15:13.093Z,33.75
2019-04-10T13:17:40.877Z,35.41
2019-04-10T13:20:09.357Z,36.21
2019-04-10T13:22:37.181Z,34.59
2019-04-10T13:25:06.015Z,33.96
2019-04-10T13:27:34.775Z,35.10
2019-04-10T13:30:02.941Z,35.51
2019-04-10T13:32:31.882Z,36.64
2019-04-10T13:34:59.814Z,37.93
2019-04-10T13:37:28.405Z,38.29
2019-04-10T13:39:57.239Z,36.54
2019-04-10T13:42:25.164Z,34.49
2019-04-10T13:44:53.009Z,34.90
2019-04-10T13:47:35.836Z,32.94
2019-04-10T13:49:57.941Z,34.04
2019-04-10T13:52:25.984Z,35.67
2019-04-10T13:54:54.706Z,33.57
2019-04-10T13:57:22.672Z,34.50
2019-04-10T13:59:50.465Z,33.02
2019-04-10T14:02:32.169Z,34.53
2019-04-10T14:05:00.453Z,34.12
2019-04-10T14:07:28.389Z,35.87
2019-04-10T14:09:56.587Z,32.20
2019-04-10T14:12:24.982Z,32.38
2019-04-10T14:14:55.083Z,31.83
2019-04-10T14:17:22.366Z,33.50
2019-04-10T14:19:52.441Z,33.74
2019-04-10T14:22:20.262Z,32.37
2019-04-10T14:24:49.734Z,32.94
2019-04-10T14:27:21.767Z,34.36
2019-04-10T14:29:51.072Z,35.57
2019-04-10T14:32:26.429Z,34.59
2019-04-10T14:34:54.606Z,34.10
2019-04-10T14:37:22.797Z,34.84
2019-04-10T14:39:51.560Z,34.57
2019-04-10T14:42:19.506Z,35.20
2019-04-10T14:44:47.250Z,33.65
2019-04-10T14:47:17.053Z,34.34
2019-04-10T14:49:45.140Z,35.43
2019-04-10T14:52:13.014Z,32.95
2019-04-10T14:54:40.781Z,35.23
2019-04-10T14:57:08.656Z,34.64
2019-04-10T14:59:36.478Z,33.27
2019-04-10T15:02:06.441Z,35.50
2019-04-10T15:04:35.277Z,36.61
2019-04-10T15:07:03.925Z,36.65
2019-04-10T15:09:31.795Z,37.71
2019-04-10T15:11:59.560Z,37.71
2019-04-10T15:14:27.854Z,37.81
2019-04-10T15:17:02.662Z,35.37
2019-04-10T15:19:25.274Z,36.76
2019-04-10T15:21:54.063Z,34.75
2019-04-10T15:24:21.948Z,32.10
2019-04-10T15:26:50.885Z,32.08
2019-04-10T15:29:18.861Z,33.10
2019-04-10T15:31:46.704Z,34.20
2019-04-10T15:34:14.550Z,32.15
2019-04-10T15:36:44.708Z,34.12
2019-04-10T15:39:12.673Z,33.44
2019-04-10T15:41:41.293Z,30.73
2019-04-10T15:44:09.893Z,30.32
2019-04-10T15:46:37.779Z,30.00
2019-04-10T15:49:05.527Z,32.92
2019-04-10T15:51:33.334Z,33.49
2019-04-10T15:54:02.049Z,33.03
2019-04-10T15:56:29.944Z,30.79
2019-04-10T15:58:58.007Z,31.55
2019-04-10T16:01:28.342Z,33.04
2019-04-10T16:03:55.740Z,34.82
2019-04-10T16:06:24.994Z,34.46
2019-04-10T16:08:53.029Z,32.95
2019-04-10T16:11:36.223Z,31.05
2019-04-10T16:14:16.687Z,29.06
2019-04-10T16:16:54.929Z,34.53
2019-04-10T16:19:34.605Z,35.37
2019-04-10T16:22:02.690Z,33.74
2019-04-10T16:24:31.143Z,33.27
2019-04-10T16:26:59.989Z,31.73
2019-04-10T16:29:28.856Z,30.35
2019-04-10T16:31:56.756Z,33.31
2019-04-10T16:34:24.865Z,30.97
2019-04-10T16:36:52.923Z,32.26
2019-04-10T16:39:20.863Z,32.04
2019-04-10T16:41:48.746Z,34.86
2019-04-10T16:44:17.165Z,31.36
2019-04-10T16:46:45.219Z,30.45
2019-04-10T16:49:13.066Z,31.03
2019-04-10T16:51:40.897Z,33.58
2019-04-10T16:54:08.759Z,32.70
2019-04-10T16:56:38.032Z,33.75
2019-04-10T16:59:06.652Z,31.88
2019-04-10T17:01:35.040Z,31.25
2019-04-10T17:04:02.866Z,32.88
2019-04-10T17:06:30.629Z,31.69
2019-04-10T17:08:58.548Z,31.67
2019-04-10T17:11:27.204Z,32.60
2019-04-10T17:13:55.114Z,30.12
2019-04-10T17:16:23.899Z,31.83
2019-04-10T17:18:51.813Z,32.74
2019-04-10T17:21:19.972Z,34.39
2019-04-10T17:23:48.997Z,30.47
2019-04-10T17:26:17.142Z,33.48
2019-04-10T17:28:45.261Z,33.42
2019-04-10T17:31:14.573Z,34.35
2019-04-10T17:33:43.709Z,31.96
2019-04-10T17:36:14.686Z,34.05
2019-04-10T17:38:42.866Z,32.18
2019-04-10T17:41:11.209Z,32.44
2019-04-10T17:43:39.095Z,33.01
2019-04-10T17:46:07.060Z,33.18
2019-04-10T17:48:37.213Z,34.75
2019-04-10T17:51:05.863Z,34.03
2019-04-10T17:53:34.103Z,31.74
2019-04-10T17:56:02.146Z,35.58
2019-04-10T17:58:30.009Z,34.68
2019-04-10T18:00:59.736Z,32.71
2019-04-10T18:03:39.591Z,33.80
2019-04-10T18:05:57.231Z,33.62
2019-04-10T18:08:26.765Z,36.02
2019-04-10T18:10:56.815Z,33.75
2019-04-10T18:13:24.610Z,34.34
2019-04-10T18:15:53.787Z,35.50
2019-04-10T18:18:22.048Z,37.07
2019-04-10T18:20:51.043Z,35.97
2019-04-10T18:23:19.651Z,36.04
2019-04-10T18:25:47.429Z,35.17
2019-04-10T18:28:15.191Z,36.70
2019-04-10T18:30:43.926Z,37.04
2019-04-10T18:33:12.120Z,36.94
2019-04-10T18:35:40.729Z,36.27
2019-04-10T18:38:09.028Z,37.40
2019-04-10T18:40:37.100Z,38.74
2019-04-10T18:43:04.864Z,37.30
2019-04-10T18:45:33.639Z,36.80
2019-04-10T18:48:02.673Z,37.09
2019-04-10T18:50:34.140Z,37.01
2019-04-10T18:53:01.900Z,37.70
2019-04-10T18:55:30.102Z,37.38
2019-04-10T18:57:59.037Z,36.25
2019-04-10T19:00:52.787Z,36.39
2019-04-10T19:03:44.119Z,36.97
2019-04-10T19:06:04.640Z,37.71
2019-04-10T19:08:32.445Z,38.02
2019-04-10T19:13:30.749Z,37.07
2019-04-10T19:15:59.224Z,38.52
2019-04-10T19:18:28.093Z,37.75
2019-04-10T19:20:57.164Z,37.97
2019-04-10T19:23:25.549Z,38.23
2019-04-10T19:25:54.603Z,37.65
2019-04-10T19:28:32.258Z,37.30
2019-04-10T19:31:08.813Z,38.19
2019-04-10T19:33:26.870Z,39.32
2019-04-10T19:35:55.191Z,40.58
2019-04-10T19:38:23.193Z,39.28
2019-04-10T19:40:54.294Z,38.88
2019-04-10T19:43:22.141Z,38.52
2019-04-10T19:45:50.308Z,39.68
2019-04-10T19:48:19.154Z,39.10
2019-04-10T19:50:47.775Z,41.40
2019-04-10T19:53:15.620Z,39.67
2019-04-10T19:55:44.128Z,41.02
2019-04-10T19:58:12.533Z,40.51
2019-04-10T20:00:40.937Z,39.71
2019-04-10T20:03:08.817Z,40.32
2019-04-10T20:05:37.239Z,40.98
2019-04-10T20:08:05.276Z,38.80
2019-04-10T20:10:33.187Z,40.30
2019-04-10T20:13:01.404Z,40.33
2019-04-10T20:15:29.433Z,41.75
2019-04-10T20:17:57.251Z,41.94
2019-04-10T20:20:27.141Z,42.98
2019-04-10T20:22:55.595Z,41.22
2019-04-10T20:25:48.423Z,41.77
2019-04-10T20:28:16.870Z,42.85
2019-04-10T20:30:44.729Z,42.05
2019-04-10T20:33:12.536Z,39.94
2019-04-10T20:35:40.472Z,41.63
2019-04-10T20:38:09.325Z,43.03
2019-04-10T20:40:38.106Z,39.55
2019-04-10T20:43:18.546Z,40.69
2019-04-10T20:45:48.074Z,40.99
2019-04-10T20:48:16.176Z,42.78
2019-04-10T20:50:44.162Z,40.47
2019-04-10T20:53:12.295Z,41.64
2019-04-10T20:55:41.897Z,41.40
2019-04-10T20:58:18.640Z,42.08
2019-04-10T21:00:46.872Z,41.71
2019-04-10T21:03:15.529Z,41.64
2019-04-10T21:05:44.447Z,42.25
2019-04-10T21:08:13.642Z,40.69
2019-04-10T21:10:41.488Z,40.40
2019-04-10T21:13:17.069Z,42.06
2019-04-10T21:15:44.987Z,42.63
2019-04-10T21:18:13.178Z,41.81
2019-04-10T21:20:41.079Z,43.30
2019-04-10T21:23:08.857Z,42.55
2019-04-10T21:25:36.617Z,42.62
2019-04-10T21:28:04.857Z,42.05
2019-04-10T21:37:28.478Z,41.04
2019-04-10T21:39:56.294Z,41.16
2019-04-10T21:42:25.736Z,42.19
2019-04-10T21:44:53.499Z,40.83
2019-04-10T21:47:21.668Z,41.33
2019-04-10T21:49:50.528Z,42.65
2019-04-10T21:52:18.624Z,40.98
2019-04-10T21:54:52.228Z,41.79
2019-04-10T21:57:16.087Z,42.87
2019-04-10T21:59:43.861Z,41.80
2019-04-10T22:02:11.650Z,42.37
2019-04-10T22:04:41.340Z,41.88
2019-04-10T22:07:22.169Z,41.23
2019-04-10T22:09:59.410Z,42.59
2019-04-10T22:12:31.615Z,42.03
2019-04-10T22:14:58.047Z,43.58
2019-04-10T22:17:26.809Z,42.08
2019-04-10T22:19:55.016Z,43.59
2019-04-10T22:22:22.829Z,44.41
2019-04-10T22:24:50.627Z,43.95
2019-04-10T22:27:19.044Z,44.19
2019-04-10T22:29:46.971Z,42.70
2019-04-10T22:32:14.744Z,44.03
2019-04-10T22:34:48.099Z,41.52
2019-04-10T22:37:16.943Z,42.67
2019-04-10T22:39:44.830Z,45.25
2019-04-10T22:42:13.013Z,44.76
2019-04-10T22:44:45.181Z,42.79
2019-04-10T22:47:11.310Z,45.43
2019-04-10T22:49:39.330Z,45.16
2019-04-10T22:52:07.184Z,44.08
2019-04-10T22:54:35.019Z,41.54
2019-04-10T22:57:04.731Z,42.47
2019-04-10T22:59:32.670Z,43.60
2019-04-10T23:02:07.189Z,42.66
2019-04-10T23:04:30.633Z,43.67
2019-04-10T23:07:01.959Z,41.98
2019-04-10T23:09:33.407Z,42.34
2019-04-10T23:12:02.232Z,44.97
2019-04-10T23:14:31.100Z,42.81
2019-04-10T23:17:00.059Z,43.74
2019-04-10T23:19:28.151Z,43.78
2019-04-10T23:21:56.709Z,43.43
2019-04-10T23:24:24.562Z,43.08
2019-04-10T23:26:53.324Z,42.92
2019-04-10T23:29:22.273Z,43.94
2019-04-10T23:31:50.105Z,47.09
2019-04-10T23:34:18.875Z,46.34
2019-04-10T23:36:46.711Z,45.96
2019-04-10T23:39:14.420Z,44.72
2019-04-10T23:41:42.409Z,45.27
2019-04-10T23:44:13.296Z,43.93
2019-04-10T23:46:43.348Z,44.40
2019-04-10T23:49:11.546Z,43.05
2019-04-10T23:51:39.250Z,45.65
2019-04-10T23:54:06.991Z,44.21
2019-04-10T23:56:35.661Z,43.70
2019-04-10T23:59:04.490Z,44.39
